Argonia, KS

11:10 PM CDT on July 30, 2014 (GMT -0500)
Strother (KWLD) Elev 1158 ft | 37.17 °N, 97.04 °W | Change Station

Current weather conditions updated 9 minutes ago

Overcast
Overcast
67 °F
Feels Like 67 °F
N
7
Wind Variable Wind from NNE

Tomorrow is forecast to be Much Warmer than today.

Today
High -- | Low -- °F
--% Chance of Precip.
Yesterday
High -- | Low -- °F
Precip. -- in
6:34 AM 8:40 PM
Waxing Crescent, 15% visible
Pressure 30.11 in
Visibility 9.0 miles
Clouds Mostly Cloudy 1300 ft
Overcast 2000 ft
Dew Point 66 °F
Humidity 97%
Rainfall 0.99 in
Snow Depth Not available.
UV 0 out of 12
Pollen .80 out of 12
Air Quality Not available.
Flu Activity Not available.
SPECI KWLD 310401Z AUTO 03006KT 9SM BKN013 OVC020 19/19 A3011 RMK AO2 T01940189

More Conditions Fewer Conditions

Pressure 30.11 in
Visibility 9.0 miles
Clouds Mostly Cloudy 1300 ft
Overcast 2000 ft
Dew Point 66 °F
Humidity 97%
Rainfall 0.99 in
Snow Depth Not available.
UV 0 out of 12
Pollen .80 out of 12
Air Quality Not available.
Flu Activity Not available.
SPECI KWLD 310401Z AUTO 03006KT 9SM BKN013 OVC020 19/19 A3011 RMK AO2 T01940189

More Conditions Fewer Conditions

10-Day Weather Forecast

Almanac

Astronomy

Jul. 30, 2014 Rise Set
Actual Time 6:34 AM CDT 8:40 PM CDT
Civil Twilight 6:05 AM CDT 9:09 PM CDT
Nautical Twilight 5:29 AM CDT 9:44 PM CDT
Astronomical Twilight 4:51 AM CDT 10:22 PM CDT
Moon 10:01 AM CDT (7/30) 10:29 PM CDT (7/30)
Length of Visible Light 15h 04m
Length of Day
14h 06m
Tomorrow will be 1m 46s shorter.
Waxing Crescent, 15% of the Moon is Illuminated
Jul 31
Waxing Crescent
Aug 3
First Quarter
Aug 10
Full
Aug 17
Last Quarter
Aug 25
New

Today's Extremes

State Highs State Lows

Community

WunderPhotos

Upload Photos

1,739,233 photos uploaded!

Nearby

Snow Depth

Station Depth Elevation
No new snow has been reported.

Earthquake Activity

City Distance Mag. Time & Date
Caldwell, Kansas 10 miles 3.4 5:57 AM CDT
2014-07-26
Helena, Oklahoma 50 miles 3.3 11:56 PM CDT
2014-07-24
Guthrie, Oklahoma 103 miles 2.7 5:27 AM CDT
2014-07-24
Minimum magnitude displayed is 2.5.

Coastal Water Temperatures

Place Temperature
No Stations Reporting

Nearby Weather Stations

Station Location Temp. Dew Point Humidity Wind Precip. Elev Updated Type
MesoWest PERTH , Mayfield, KS 65 °F - - North  at  - 0.00 in / hr 1228 ft 8:15 PM CDT MADIS
Caldwell Hess, Caldwell, KS 67.3 °F 66 °F 94% SSW  at  2.0 mph 0.00 in / hr 1165 ft 11:04 PM CDT Normal
KanOkla, Caldwell, KS 67.3 °F 65 °F 91% NE  at  4.0 mph 0.00 in / hr 1168 ft 11:10 PM CDT Normal
MesoWest RNFROW , Caldwell, KS 65 °F - - North  at  - 0.00 in / hr 1240 ft 7:50 PM CDT MADIS
Dove Haven, Clearwater, KS 64.5 °F 62 °F 93% North  at  6.0 mph 0.00 in / hr 1394 ft 11:10 PM CDT Normal

Show More Stations Show Fewer Stations